createdAt,value
2022-10-05T00:00:59.004Z,5.73
2022-10-05T00:03:33.357Z,5.57
2022-10-05T00:06:00.212Z,5.50
2022-10-05T00:08:32.138Z,5.43
2022-10-05T00:10:59.196Z,4.60
2022-10-05T00:13:28.771Z,4.50
2022-10-05T00:16:16.835Z,4.80
2022-10-05T00:18:49.207Z,4.77
2022-10-05T00:21:20.160Z,4.70
2022-10-05T00:23:47.172Z,5.20
2022-10-05T00:26:20.437Z,4.97
2022-10-05T00:28:47.686Z,4.63
2022-10-05T00:31:20.341Z,5.27
2022-10-05T00:33:47.705Z,5.33
2022-10-05T00:36:14.581Z,6.53
2022-10-05T00:38:42.357Z,5.50
2022-10-05T00:41:18.710Z,5.43
2022-10-05T00:44:03.980Z,4.80
2022-10-05T00:46:57.098Z,4.80
2022-10-05T00:49:41.515Z,5.13
2022-10-05T00:52:46.784Z,3.80
2022-10-05T00:55:27.926Z,4.37
2022-10-05T00:58:19.882Z,4.40
2022-10-05T01:01:07.610Z,4.87
2022-10-05T01:03:52.313Z,4.77
2022-10-05T01:06:33.867Z,4.97
2022-10-05T01:09:15.663Z,4.53
2022-10-05T01:12:00.463Z,3.80
2022-10-05T01:14:51.240Z,3.80
2022-10-05T01:17:32.763Z,4.03
2022-10-05T01:20:11.659Z,3.50
2022-10-05T01:22:56.892Z,3.27
2022-10-05T01:25:31.685Z,3.17
2022-10-05T01:28:17.265Z,3.57
2022-10-05T01:30:52.921Z,3.40
2022-10-05T01:33:29.042Z,4.00
2022-10-05T01:36:14.562Z,3.37
2022-10-05T01:39:02.505Z,3.97
2022-10-05T01:41:37.776Z,4.60
2022-10-05T01:44:17.916Z,3.80
2022-10-05T01:47:00.328Z,3.57
2022-10-05T01:49:43.345Z,3.90
2022-10-05T01:52:37.490Z,4.67
2022-10-05T01:55:17.585Z,4.27
2022-10-05T01:58:04.915Z,3.60
2022-10-05T02:00:38.818Z,3.80
2022-10-05T02:03:16.192Z,3.60
2022-10-05T02:05:57.867Z,4.00
2022-10-05T02:08:37.823Z,3.63
2022-10-05T02:11:15.083Z,3.60
2022-10-05T02:13:58.146Z,3.70
2022-10-05T02:16:38.777Z,3.40
2022-10-05T02:19:10.486Z,3.83
2022-10-05T02:21:41.213Z,3.77
2022-10-05T02:24:15.460Z,3.70
2022-10-05T02:26:42.384Z,3.53
2022-10-05T02:29:13.195Z,3.83
2022-10-05T02:31:47.624Z,3.60
2022-10-05T02:34:35.856Z,3.33
2022-10-05T02:37:27.886Z,3.10
2022-10-05T02:40:22.793Z,2.97
2022-10-05T02:43:07.963Z,4.33
2022-10-05T02:45:43.516Z,3.80
2022-10-05T02:48:44.510Z,4.10
2022-10-05T02:51:11.109Z,3.40
2022-10-05T02:53:58.907Z,4.70
2022-10-05T02:56:34.712Z,3.90
2022-10-05T02:59:08.170Z,4.00
2022-10-05T03:01:41.155Z,4.07
2022-10-05T03:04:20.118Z,4.03
2022-10-05T03:06:58.917Z,4.00
2022-10-05T03:09:28.922Z,4.70
2022-10-05T03:12:24.990Z,6.07
2022-10-05T03:15:07.739Z,5.70
2022-10-05T03:17:49.047Z,7.83
2022-10-05T03:20:42.422Z,6.47
2022-10-05T03:23:24.952Z,5.97
2022-10-05T03:26:19.074Z,6.03
2022-10-05T03:29:06.795Z,4.40
2022-10-05T03:31:36.275Z,4.47
2022-10-05T03:34:13.890Z,4.23
2022-10-05T03:37:00.590Z,4.47
2022-10-05T03:39:39.593Z,4.63
2022-10-05T03:42:10.350Z,4.87
2022-10-05T03:44:56.887Z,4.60
2022-10-05T03:47:33.693Z,4.50
2022-10-05T03:50:15.564Z,4.90
2022-10-05T03:53:05.996Z,4.30
2022-10-05T03:55:46.866Z,4.00
2022-10-05T03:58:29.330Z,4.17
2022-10-05T04:01:03.622Z,4.57
2022-10-05T04:03:34.114Z,4.40
2022-10-05T04:06:18.686Z,5.13
2022-10-05T04:08:56.126Z,5.17
2022-10-05T04:11:29.841Z,5.30
2022-10-05T04:14:11.043Z,4.97
2022-10-05T04:16:49.439Z,4.63
2022-10-05T04:19:24.462Z,4.83
2022-10-05T04:21:56.073Z,4.67
2022-10-05T04:24:55.934Z,5.10
2022-10-05T04:27:36.672Z,4.43
2022-10-05T04:30:16.092Z,4.80
2022-10-05T04:32:58.304Z,6.53
2022-10-05T04:35:48.378Z,6.43
2022-10-05T04:38:15.941Z,5.90
2022-10-05T04:41:03.205Z,5.97
2022-10-05T04:43:55.103Z,6.90
2022-10-05T04:46:40.631Z,6.77
2022-10-05T04:49:39.221Z,13.17
2022-10-05T04:52:23.585Z,13.93
2022-10-05T04:55:08.696Z,14.20
2022-10-05T04:57:45.753Z,9.90
2022-10-05T05:00:37.036Z,9.73
2022-10-05T05:03:24.566Z,10.63
2022-10-05T05:06:22.645Z,9.33
2022-10-05T05:09:08.554Z,9.60
2022-10-05T05:12:10.688Z,9.93
2022-10-05T05:14:52.733Z,11.80
2022-10-05T05:17:38.117Z,10.40
2022-10-05T05:20:31.306Z,10.13
2022-10-05T05:23:20.908Z,8.77
2022-10-05T05:26:04.578Z,8.57
2022-10-05T05:28:58.304Z,8.07
2022-10-05T05:31:45.782Z,7.10
2022-10-05T05:34:34.432Z,6.70
2022-10-05T05:37:29.041Z,7.77
2022-10-05T05:40:10.850Z,6.40
2022-10-05T05:42:43.336Z,6.53
2022-10-05T05:45:42.143Z,6.60
2022-10-05T05:48:28.273Z,6.90
2022-10-05T05:51:15.170Z,9.23
2022-10-05T05:53:47.546Z,8.63
2022-10-05T05:56:23.905Z,8.60
2022-10-05T05:59:03.290Z,7.67
2022-10-05T06:01:34.312Z,8.07
2022-10-05T06:04:15.598Z,9.47
2022-10-05T06:06:53.902Z,8.93
2022-10-05T06:09:39.858Z,8.83
2022-10-05T06:12:47.578Z,8.40
2022-10-05T06:15:22.028Z,8.53
2022-10-05T06:18:01.254Z,8.50
2022-10-05T06:20:42.478Z,8.47
2022-10-05T06:23:23.327Z,7.77
2022-10-05T06:26:11.103Z,8.37
2022-10-05T06:28:39.766Z,8.07
2022-10-05T06:31:19.654Z,8.57
2022-10-05T06:33:53.684Z,8.60
2022-10-05T06:36:50.576Z,7.87
2022-10-05T06:39:30.651Z,8.57
2022-10-05T06:42:07.732Z,8.60
2022-10-05T06:45:14.943Z,9.63
2022-10-05T06:48:18.579Z,10.17
2022-10-05T06:51:51.450Z,7.07
2022-10-05T06:54:46.065Z,7.40
2022-10-05T06:57:43.839Z,6.83
2022-10-05T07:00:17.088Z,7.60
2022-10-05T07:02:59.077Z,7.57
2022-10-05T07:05:45.054Z,6.77
2022-10-05T07:08:16.055Z,6.63
2022-10-05T07:11:06.279Z,7.40
2022-10-05T07:14:00.465Z,6.50
2022-10-05T07:17:04.800Z,5.50
2022-10-05T07:19:54.741Z,5.63
2022-10-05T07:22:47.078Z,5.20
2022-10-05T07:25:20.287Z,7.30
2022-10-05T07:27:57.652Z,11.47
2022-10-05T07:30:24.597Z,12.33
2022-10-05T07:33:10.111Z,10.37
2022-10-05T07:36:12.818Z,10.27
2022-10-05T07:39:04.488Z,6.73
2022-10-05T07:41:48.490Z,6.60
2022-10-05T07:44:33.211Z,6.30
2022-10-05T07:47:15.271Z,7.30
2022-10-05T07:49:50.171Z,7.77
2022-10-05T07:52:26.097Z,8.83
2022-10-05T07:55:01.901Z,9.30
2022-10-05T07:57:50.041Z,7.93
2022-10-05T08:00:23.715Z,6.83
2022-10-05T08:03:02.763Z,7.30
2022-10-05T08:05:32.056Z,6.53
2022-10-05T08:08:18.205Z,6.72
2022-10-05T08:10:59.949Z,6.73
2022-10-05T08:13:34.125Z,6.05
2022-10-05T08:16:04.486Z,6.20
2022-10-05T08:18:44.725Z,6.32
2022-10-05T08:21:12.910Z,6.47
2022-10-05T08:23:51.311Z,6.37
2022-10-05T08:26:40.766Z,6.30
2022-10-05T08:29:47.695Z,6.87
2022-10-05T08:32:32.117Z,5.87
2022-10-05T08:35:20.145Z,5.93
2022-10-05T08:37:49.125Z,7.30
2022-10-05T08:40:18.316Z,5.72
2022-10-05T08:43:22.540Z,6.00
2022-10-05T08:46:13.848Z,5.18
2022-10-05T08:49:00.210Z,4.30
2022-10-05T08:51:55.478Z,3.90
2022-10-05T08:54:26.338Z,3.83
2022-10-05T08:57:10.984Z,3.95
2022-10-05T09:00:00.530Z,4.63
2022-10-05T09:02:30.790Z,3.25
2022-10-05T09:05:34.939Z,3.50
2022-10-05T09:08:20.702Z,3.13
2022-10-05T09:11:06.875Z,3.75
2022-10-05T09:14:01.764Z,3.08
2022-10-05T09:16:44.457Z,2.97
2022-10-05T09:19:34.579Z,3.08
2022-10-05T09:22:15.495Z,3.08
2022-10-05T09:24:58.057Z,3.25
2022-10-05T09:27:38.064Z,3.28
2022-10-05T09:30:16.427Z,2.60
2022-10-05T09:33:14.286Z,2.67
2022-10-05T09:36:05.489Z,2.60
2022-10-05T09:38:53.235Z,2.95
2022-10-05T09:42:10.108Z,2.60
2022-10-05T09:45:00.072Z,3.10
2022-10-05T09:47:45.180Z,3.33
2022-10-05T09:50:51.929Z,2.90
2022-10-05T09:53:30.366Z,3.13
2022-10-05T09:56:05.944Z,2.60
2022-10-05T09:58:57.230Z,2.60
2022-10-05T10:01:59.670Z,3.70
2022-10-05T10:04:44.091Z,3.25
2022-10-05T10:07:35.595Z,3.28
2022-10-05T10:10:23.500Z,2.70
2022-10-05T10:13:08.926Z,2.65
2022-10-05T10:15:44.412Z,2.90
2022-10-05T10:18:59.668Z,2.47
2022-10-05T10:22:05.234Z,2.45
2022-10-05T10:25:01.057Z,2.50
2022-10-05T10:27:39.351Z,2.55
2022-10-05T10:30:19.844Z,2.40
2022-10-05T10:33:03.850Z,2.13
2022-10-05T10:35:39.751Z,2.40
2022-10-05T10:38:15.068Z,2.30
2022-10-05T10:41:26.581Z,2.10
2022-10-05T10:44:30.435Z,2.30
2022-10-05T10:47:18.927Z,2.28
2022-10-05T10:49:59.649Z,2.13
2022-10-05T10:52:58.817Z,2.25
2022-10-05T10:55:38.685Z,2.22
2022-10-05T10:58:37.410Z,2.10
2022-10-05T11:01:23.803Z,2.97
2022-10-05T11:04:36.467Z,2.30
2022-10-05T11:07:24.904Z,2.42
2022-10-05T11:10:09.581Z,2.42
2022-10-05T11:13:07.289Z,2.28
2022-10-05T11:15:58.457Z,2.63
2022-10-05T11:18:33.689Z,2.60
2022-10-05T11:21:21.892Z,2.45
2022-10-05T11:24:25.143Z,2.38
2022-10-05T11:27:09.982Z,2.45
2022-10-05T11:29:51.693Z,2.40
2022-10-05T11:33:02.125Z,2.42
2022-10-05T11:35:58.866Z,2.22
2022-10-05T11:38:49.077Z,2.30
2022-10-05T11:41:52.758Z,2.15
2022-10-05T11:44:31.346Z,2.55
2022-10-05T11:47:19.763Z,2.30
2022-10-05T11:50:11.469Z,2.20
2022-10-05T11:53:13.810Z,2.40
2022-10-05T11:56:14.045Z,2.10
2022-10-05T11:58:50.180Z,2.25
2022-10-05T12:01:41.330Z,2.30
2022-10-05T12:04:16.902Z,2.10
2022-10-05T12:07:07.634Z,2.30
2022-10-05T12:10:08.949Z,2.15
2022-10-05T12:12:44.384Z,2.42
2022-10-05T12:15:25.265Z,2.25
2022-10-05T12:18:17.918Z,1.90
2022-10-05T12:21:15.455Z,2.30
2022-10-05T12:23:54.740Z,2.00
2022-10-05T12:26:34.303Z,1.88
2022-10-05T12:29:13.077Z,2.35
2022-10-05T12:32:04.161Z,2.58
2022-10-05T12:34:51.370Z,2.50
2022-10-05T12:37:42.720Z,2.25
2022-10-05T12:40:26.823Z,2.17
2022-10-05T12:43:26.766Z,2.50
2022-10-05T12:46:04.926Z,2.47
2022-10-05T12:49:09.248Z,2.20
2022-10-05T12:51:46.470Z,1.98
2022-10-05T12:55:03.467Z,2.03
2022-10-05T12:57:49.925Z,2.20
2022-10-05T13:00:22.961Z,2.55
2022-10-05T13:02:57.298Z,2.22
2022-10-05T13:05:29.702Z,2.03
2022-10-05T13:08:18.413Z,2.05
2022-10-05T13:11:23.721Z,2.13
2022-10-05T13:14:07.314Z,2.08
2022-10-05T13:17:03.682Z,1.83
2022-10-05T13:19:40.402Z,2.00
2022-10-05T13:22:14.612Z,1.98
2022-10-05T13:25:08.775Z,2.15
2022-10-05T13:27:41.029Z,1.65
2022-10-05T13:30:16.082Z,1.90
2022-10-05T13:32:52.276Z,1.90
2022-10-05T13:35:24.378Z,1.90
2022-10-05T13:37:56.871Z,1.42
2022-10-05T13:40:23.371Z,1.70
2022-10-05T13:43:02.712Z,2.00
2022-10-05T13:45:55.788Z,1.58
2022-10-05T13:48:46.198Z,1.70
2022-10-05T13:51:23.549Z,1.60
2022-10-05T13:54:00.902Z,1.52
2022-10-05T13:56:34.398Z,1.33
2022-10-05T13:59:28.201Z,1.60
2022-10-05T14:02:02.025Z,1.40
2022-10-05T14:04:42.414Z,1.52
2022-10-05T14:07:34.071Z,1.50
2022-10-05T14:10:02.330Z,1.50
2022-10-05T14:12:28.843Z,1.45
2022-10-05T14:14:57.671Z,1.85
2022-10-05T14:17:36.802Z,1.30
2022-10-05T14:20:25.570Z,1.52
2022-10-05T14:23:01.780Z,1.60
2022-10-05T14:25:31.790Z,1.65
2022-10-05T14:28:02.540Z,1.77
2022-10-05T14:30:31.979Z,1.33
2022-10-05T14:33:04.462Z,1.60
2022-10-05T14:35:53.944Z,1.45
2022-10-05T14:38:26.262Z,1.30
2022-10-05T14:41:07.896Z,1.25
2022-10-05T14:43:34.946Z,1.50
2022-10-05T14:46:14.782Z,1.58
2022-10-05T14:48:43.117Z,1.50
2022-10-05T14:51:11.968Z,1.17
2022-10-05T14:53:43.471Z,1.40
2022-10-05T14:56:22.969Z,1.48
2022-10-05T14:59:22.144Z,1.40
2022-10-05T15:02:02.043Z,1.23
2022-10-05T15:04:47.566Z,1.33
2022-10-05T15:07:24.834Z,1.60
2022-10-05T15:10:14.139Z,1.73
2022-10-05T15:12:48.258Z,1.40
2022-10-05T15:15:27.048Z,1.40
2022-10-05T15:18:04.974Z,1.10
2022-10-05T15:20:41.497Z,1.33
2022-10-05T15:23:13.913Z,1.58
2022-10-05T15:25:50.217Z,1.38
2022-10-05T15:28:37.691Z,1.95
2022-10-05T15:31:14.396Z,1.88
2022-10-05T15:33:57.355Z,1.73
2022-10-05T15:36:39.139Z,1.50
2022-10-05T15:39:08.189Z,1.63
2022-10-05T15:41:56.463Z,1.45
2022-10-05T15:44:43.978Z,1.50
2022-10-05T15:47:20.739Z,1.50
2022-10-05T15:50:01.902Z,1.30
2022-10-05T15:52:46.217Z,1.52
2022-10-05T15:55:42.846Z,1.60
2022-10-05T15:58:31.307Z,1.50
2022-10-05T16:01:10.579Z,1.90
2022-10-05T16:03:54.337Z,1.60
2022-10-05T16:07:11.818Z,1.90
2022-10-05T16:10:08.976Z,1.88
2022-10-05T16:13:09.285Z,1.65
2022-10-05T16:16:12.555Z,1.55
2022-10-05T16:18:55.160Z,1.90
2022-10-05T16:21:57.818Z,1.80
2022-10-05T16:24:54.520Z,1.95
2022-10-05T16:27:39.186Z,1.67
2022-10-05T16:30:11.518Z,1.73
2022-10-05T16:33:04.651Z,2.40
2022-10-05T16:35:46.519Z,2.15
2022-10-05T16:38:24.786Z,2.03
2022-10-05T16:41:09.998Z,1.90
2022-10-05T16:43:58.032Z,1.92
2022-10-05T16:46:48.048Z,1.80
2022-10-05T16:49:43.701Z,1.63
2022-10-05T16:52:15.716Z,2.30
2022-10-05T16:54:52.570Z,1.60
2022-10-05T16:57:35.169Z,1.80
2022-10-05T17:00:45.628Z,1.95
2022-10-05T17:03:12.457Z,1.88
2022-10-05T17:06:03.849Z,2.00
2022-10-05T17:08:49.669Z,2.47
2022-10-05T17:11:34.865Z,2.45
2022-10-05T17:14:07.342Z,4.88
2022-10-05T17:16:54.983Z,4.00
2022-10-05T17:19:40.220Z,2.90
2022-10-05T17:22:39.609Z,3.22
2022-10-05T17:25:24.142Z,3.80
2022-10-05T17:27:55.280Z,2.58
2022-10-05T17:30:28.337Z,2.75
2022-10-05T17:33:14.012Z,3.50
2022-10-05T17:35:51.794Z,2.50
2022-10-05T17:38:41.665Z,2.70
2022-10-05T17:41:11.816Z,4.47
2022-10-05T17:43:38.956Z,2.90
2022-10-05T17:46:09.166Z,3.00
2022-10-05T17:48:54.174Z,2.78
2022-10-05T17:51:48.330Z,3.00
2022-10-05T17:54:44.477Z,3.90
2022-10-05T17:57:10.965Z,4.40
2022-10-05T17:59:46.291Z,2.10
2022-10-05T18:02:36.171Z,2.30
2022-10-05T18:05:12.354Z,2.63
2022-10-05T18:07:40.295Z,3.75
2022-10-05T18:10:09.733Z,3.08
2022-10-05T18:12:36.045Z,2.65
2022-10-05T18:15:05.451Z,2.35
2022-10-05T18:17:51.038Z,2.75
2022-10-05T18:20:28.645Z,3.78
2022-10-05T18:23:01.016Z,2.42
2022-10-05T18:25:49.307Z,2.50
2022-10-05T18:28:40.670Z,2.40
2022-10-05T18:31:46.650Z,2.10
2022-10-05T18:34:22.070Z,2.53
2022-10-05T18:36:57.649Z,2.45
2022-10-05T18:39:43.333Z,2.47
2022-10-05T18:42:31.545Z,2.55
2022-10-05T18:45:04.017Z,1.98
2022-10-05T18:47:40.894Z,2.13
2022-10-05T18:50:33.706Z,2.90
2022-10-05T18:53:19.022Z,3.05
2022-10-05T18:55:53.205Z,4.85
2022-10-05T18:58:36.658Z,2.85
2022-10-05T19:01:21.309Z,2.20
2022-10-05T19:04:04.481Z,2.55
2022-10-05T19:06:42.019Z,2.70
2022-10-05T19:09:34.750Z,2.05
2022-10-05T19:12:26.323Z,2.17
2022-10-05T19:15:01.103Z,2.20
2022-10-05T19:18:01.528Z,2.60
2022-10-05T19:20:37.283Z,2.88
2022-10-05T19:23:18.505Z,2.47
2022-10-05T19:25:54.726Z,3.00
2022-10-05T19:28:38.640Z,2.90
2022-10-05T19:31:22.784Z,2.80
2022-10-05T19:34:05.153Z,1.80
2022-10-05T19:36:44.825Z,2.67
2022-10-05T19:39:47.525Z,2.50
2022-10-05T19:42:30.527Z,2.10
2022-10-05T19:45:21.574Z,2.65
2022-10-05T19:48:05.822Z,2.30
2022-10-05T19:50:34.302Z,2.80
2022-10-05T19:53:11.207Z,2.88
2022-10-05T19:55:41.572Z,2.67
2022-10-05T19:58:27.162Z,2.03
2022-10-05T20:00:59.612Z,2.22
2022-10-05T20:03:31.689Z,2.25
2022-10-05T20:06:01.001Z,2.20
2022-10-05T20:08:36.702Z,3.67
2022-10-05T20:11:09.745Z,2.92
2022-10-05T20:13:36.947Z,1.75
2022-10-05T20:16:36.253Z,3.00
2022-10-05T20:19:41.442Z,2.15
2022-10-05T20:22:32.696Z,2.40
2022-10-05T20:25:08.062Z,5.30
2022-10-05T20:27:40.798Z,2.70
2022-10-05T20:30:09.404Z,2.50
2022-10-05T20:32:35.802Z,5.00
2022-10-05T20:35:02.426Z,2.55
2022-10-05T20:37:28.843Z,2.72
2022-10-05T20:39:55.334Z,3.30
2022-10-05T20:42:23.726Z,3.25
2022-10-05T20:44:55.787Z,3.30
2022-10-05T20:47:24.098Z,5.28
2022-10-05T20:49:50.599Z,5.35
2022-10-05T20:52:17.014Z,3.58
2022-10-05T20:54:43.443Z,2.92
2022-10-05T20:57:10.131Z,2.50
2022-10-05T20:59:37.209Z,2.70
2022-10-05T21:02:04.693Z,4.60
2022-10-05T21:04:40.310Z,3.00
2022-10-05T21:07:08.137Z,4.78
2022-10-05T21:09:34.637Z,5.07
2022-10-05T21:12:01.139Z,6.72
2022-10-05T21:14:30.509Z,3.08
2022-10-05T21:16:56.923Z,3.38
2022-10-05T21:19:23.390Z,2.30
2022-10-05T21:21:49.918Z,2.10
2022-10-05T21:24:17.300Z,2.13
2022-10-05T21:26:44.591Z,2.40
2022-10-05T21:29:12.933Z,2.30
2022-10-05T21:31:39.962Z,2.30
2022-10-05T21:34:06.902Z,1.80
2022-10-05T21:36:33.394Z,2.35
2022-10-05T21:39:00.241Z,2.30
2022-10-05T21:41:27.036Z,2.30
2022-10-05T21:43:53.574Z,2.22
2022-10-05T21:46:22.753Z,2.80
2022-10-05T21:48:49.895Z,2.30
2022-10-05T21:51:18.823Z,3.30
2022-10-05T21:54:03.941Z,2.83
2022-10-05T21:56:35.455Z,2.63
2022-10-05T21:59:04.869Z,2.42
2022-10-05T22:01:31.387Z,2.58
2022-10-05T22:03:57.958Z,2.50
2022-10-05T22:06:24.677Z,2.55
2022-10-05T22:08:51.102Z,2.50
2022-10-05T22:11:18.033Z,2.50
2022-10-05T22:13:47.933Z,4.10
2022-10-05T22:16:16.412Z,3.28
2022-10-05T22:18:43.473Z,2.28
2022-10-05T22:21:12.472Z,2.50
2022-10-05T22:23:44.787Z,2.47
2022-10-05T22:26:14.291Z,2.17
2022-10-05T22:28:42.342Z,2.80
2022-10-05T22:31:10.291Z,6.32
2022-10-05T22:33:37.120Z,3.75
2022-10-05T22:36:05.463Z,2.65
2022-10-05T22:38:32.234Z,2.42
2022-10-05T22:40:58.731Z,3.03
2022-10-05T22:43:28.610Z,3.97
2022-10-05T22:45:55.934Z,3.67
2022-10-05T22:48:22.450Z,4.22
2022-10-05T22:50:49.217Z,2.75
2022-10-05T22:53:16.067Z,2.90
2022-10-05T22:55:42.545Z,2.78
2022-10-05T22:58:08.937Z,2.80
2022-10-05T23:00:56.858Z,2.33
2022-10-05T23:03:21.969Z,2.33
2022-10-05T23:05:55.424Z,2.60
2022-10-05T23:08:21.823Z,2.45
2022-10-05T23:10:48.290Z,2.55
2022-10-05T23:13:15.237Z,2.40
2022-10-05T23:15:42.387Z,2.67
2022-10-05T23:18:08.830Z,2.42
2022-10-05T23:20:35.227Z,2.60
2022-10-05T23:23:01.718Z,2.67
2022-10-05T23:25:28.190Z,2.78
2022-10-05T23:27:54.674Z,2.72
2022-10-05T23:30:21.260Z,2.78
2022-10-05T23:32:47.644Z,2.95
2022-10-05T23:35:14.172Z,2.97
2022-10-05T23:37:43.154Z,3.33
2022-10-05T23:40:12.911Z,2.72
2022-10-05T23:42:40.098Z,2.72
2022-10-05T23:45:08.426Z,2.67
2022-10-05T23:47:34.900Z,2.65
2022-10-05T23:50:01.588Z,2.60
2022-10-05T23:52:28.033Z,2.78
2022-10-05T23:54:54.443Z,2.80
2022-10-05T23:57:21.512Z,2.70
2022-10-05T23:59:50.199Z,2.70
